Weeki Wachee, Florida
Current Conditions -  °F | °C
As of 2:53 PM on Saturday 25 Oct 2014 (Local Time) from KBKV Reporting Station
Clear Clear  
Wind Chill: 80°   Ceiling: Unl
Heat Index: 80°   Visibility: 10mi
Dew Point: 47°   Wind: 9mph
Humidity: 31%   Direction: 30°NNE
Pressure: 29.97"   Gusts: NA
Location:  28.4982°N, 82.633°W
Report Text: KBKV 251853Z AUTO 03008KT 10SM CLR 27/08 A2997 RMK AO2 SLP146 T02670083
Loading
Personal Weather Stations






























Interactive Weather Map
Tropical Storm Tracking
New forecast layout! Learn more

10-Day Weather Forecast

Advertisements
Track Severe Weather on mobile